Terminal Aerodrome Forecast
Issued by NWS

Home | Current Version | Previous Version | Text Only | Print | Product List | Glossary On
Versions: 1 2 3 4 5 6 7 8 9 10 11 12 13 14 15
000
FTUS41 KCAR 292328 AAA
TAFBHB
TAF AMD
KBHB 292328Z 2923/3018 33005KT P6SM SKC
      TEMPO 3000/3001 SCT050
     FM301400 26004KT P6SM SCT200=

USA.gov is the U.S. government's official web portal to all federal, state and local government web resources and services.